createdAt,value
2023-02-06T00:00:50.606Z,89540.00
2023-02-06T00:01:50.483Z,89540.00
2023-02-06T00:02:50.468Z,89540.00
2023-02-06T00:03:50.429Z,89540.00
2023-02-06T00:04:50.533Z,89538.00
2023-02-06T00:05:50.423Z,89542.00
2023-02-06T00:06:51.128Z,89544.00
2023-02-06T00:07:50.324Z,89546.00
2023-02-06T00:08:50.283Z,89544.00
2023-02-06T00:10:50.245Z,89544.00
2023-02-06T00:11:50.174Z,89544.00
2023-02-06T00:12:50.199Z,89540.00
2023-02-06T00:13:50.151Z,89538.00
2023-02-06T00:14:50.089Z,89538.00
2023-02-06T00:15:50.086Z,89540.00
2023-02-06T00:16:50.058Z,89538.00
2023-02-06T00:17:50.642Z,89540.00
2023-02-06T00:18:50.104Z,89544.00
2023-02-06T00:19:50.054Z,89544.00
2023-02-06T00:20:50.050Z,89544.00
2023-02-06T00:21:49.889Z,89540.00
2023-02-06T00:22:49.880Z,89542.00
2023-02-06T00:23:49.837Z,89544.00
2023-02-06T00:24:49.802Z,89546.00
2023-02-06T00:25:49.790Z,89550.00
2023-02-06T00:26:49.761Z,89550.00
2023-02-06T00:27:49.735Z,89552.00
2023-02-06T00:28:49.710Z,89552.00
2023-02-06T00:29:49.702Z,89556.00
2023-02-06T00:30:49.792Z,89558.00
2023-02-06T00:31:49.694Z,89560.00
2023-02-06T00:32:49.665Z,89562.00
2023-02-06T00:33:49.596Z,89562.00
2023-02-06T00:34:49.566Z,89560.00
2023-02-06T00:35:49.537Z,89560.00
2023-02-06T00:36:49.510Z,89564.00
2023-02-06T00:37:49.490Z,89562.00
2023-02-06T00:38:49.451Z,89560.00
2023-02-06T00:39:49.461Z,89560.00
2023-02-06T00:40:49.400Z,89558.00
2023-02-06T00:41:49.370Z,89558.00
2023-02-06T00:42:49.347Z,89558.00
2023-02-06T00:43:49.318Z,89562.00
2023-02-06T00:44:49.325Z,89560.00
2023-02-06T00:45:49.268Z,89566.00
2023-02-06T00:46:49.246Z,89566.00
2023-02-06T00:47:49.215Z,89572.00
2023-02-06T00:48:49.187Z,89572.00
2023-02-06T00:49:49.182Z,89568.00
2023-02-06T00:50:49.156Z,89568.00
2023-02-06T00:51:49.152Z,89572.00
2023-02-06T00:52:49.166Z,89572.00
2023-02-06T00:53:51.058Z,89570.00
2023-02-06T00:54:49.098Z,89573.00
2023-02-06T00:55:49.064Z,89575.00
2023-02-06T00:56:49.056Z,89579.00
2023-02-06T00:57:49.006Z,89577.00
2023-02-06T00:58:49.001Z,89575.00
2023-02-06T00:59:48.986Z,89579.00
2023-02-06T01:00:49.652Z,89583.00
2023-02-06T01:01:48.962Z,89583.00
2023-02-06T01:02:48.910Z,89587.00
2023-02-06T01:03:48.905Z,89583.00
2023-02-06T01:04:48.833Z,89589.00
2023-02-06T01:05:48.831Z,89587.00
2023-02-06T01:06:48.804Z,89587.00
2023-02-06T01:07:48.797Z,89587.00
2023-02-06T01:08:48.774Z,89583.00
2023-02-06T01:09:48.805Z,89579.00
2023-02-06T01:10:48.839Z,89583.00
2023-02-06T01:11:48.892Z,89581.00
2023-02-06T01:12:48.906Z,89579.00
2023-02-06T01:13:48.970Z,89577.00
2023-02-06T01:14:49.004Z,89579.00
2023-02-06T01:15:51.070Z,89581.00
2023-02-06T01:16:49.019Z,89587.00
2023-02-06T01:17:48.983Z,89587.00
2023-02-06T01:18:48.956Z,89591.00
2023-02-06T01:19:48.991Z,89591.00
2023-02-06T01:20:49.017Z,89589.00
2023-02-06T01:21:49.063Z,89591.00
2023-02-06T01:22:49.084Z,89593.00
2023-02-06T01:23:49.122Z,89591.00
2023-02-06T01:24:49.177Z,89593.00
2023-02-06T01:25:49.193Z,89593.00
2023-02-06T01:26:49.237Z,89589.00
2023-02-06T01:27:49.294Z,89583.00
2023-02-06T01:28:49.319Z,89581.00
2023-02-06T01:29:49.375Z,89583.00
2023-02-06T01:30:49.454Z,89581.00
2023-02-06T01:31:49.443Z,89585.00
2023-02-06T01:32:49.450Z,89587.00
2023-02-06T01:33:49.505Z,89585.00
2023-02-06T01:34:49.528Z,89587.00
2023-02-06T01:35:49.551Z,89583.00
2023-02-06T01:36:49.610Z,89579.00
2023-02-06T01:37:49.624Z,89577.00
2023-02-06T01:38:49.665Z,89583.00
2023-02-06T01:39:49.681Z,89583.00
2023-02-06T01:40:49.714Z,89583.00
2023-02-06T01:41:49.801Z,89585.00
2023-02-06T01:42:49.769Z,89585.00
2023-02-06T01:43:49.806Z,89583.00
2023-02-06T01:44:49.843Z,89583.00
2023-02-06T01:45:49.875Z,89583.00
2023-02-06T01:46:49.962Z,89579.00
2023-02-06T01:47:49.969Z,89577.00
2023-02-06T01:48:50.000Z,89573.00
2023-02-06T01:49:50.001Z,89570.00
2023-02-06T01:50:50.020Z,89564.00
2023-02-06T01:51:50.086Z,89562.00
2023-02-06T01:52:50.132Z,89562.00
2023-02-06T01:53:50.138Z,89568.00
2023-02-06T01:54:50.151Z,89564.00
2023-02-06T01:55:50.197Z,89566.00
2023-02-06T01:56:50.366Z,89566.00
2023-02-06T01:57:50.419Z,89564.00
2023-02-06T01:58:50.399Z,89562.00
2023-02-06T01:59:50.422Z,89564.00
2023-02-06T02:00:50.606Z,89560.00
2023-02-06T02:01:50.533Z,89560.00
2023-02-06T02:03:50.466Z,89554.00
2023-02-06T02:04:50.521Z,89556.00
2023-02-06T02:05:50.471Z,89552.00
2023-02-06T02:06:50.341Z,89552.00
2023-02-06T02:07:50.680Z,89550.00
2023-02-06T02:08:50.282Z,89550.00
2023-02-06T02:09:50.228Z,89550.00
2023-02-06T02:10:50.251Z,89550.00
2023-02-06T02:11:50.201Z,89552.00
2023-02-06T02:12:50.181Z,89554.00
2023-02-06T02:13:50.175Z,89558.00
2023-02-06T02:14:50.110Z,89556.00
2023-02-06T02:15:50.129Z,89556.00
2023-02-06T02:16:50.148Z,89558.00
2023-02-06T02:17:50.219Z,89554.00
2023-02-06T02:18:50.236Z,89554.00
2023-02-06T02:19:50.264Z,89554.00
2023-02-06T02:20:50.279Z,89556.00
2023-02-06T02:21:50.312Z,89560.00
2023-02-06T02:22:50.335Z,89558.00
2023-02-06T02:23:50.446Z,89554.00
2023-02-06T02:25:50.391Z,89558.00
2023-02-06T02:26:50.453Z,89556.00
2023-02-06T02:27:50.396Z,89556.00
2023-02-06T02:28:50.478Z,89556.00
2023-02-06T02:29:50.312Z,89558.00
2023-02-06T02:30:50.305Z,89556.00
2023-02-06T02:31:50.279Z,89558.00
2023-02-06T02:32:50.282Z,89558.00
2023-02-06T02:33:50.275Z,89560.00
2023-02-06T02:34:50.313Z,89560.00
2023-02-06T02:35:50.350Z,89562.00
2023-02-06T02:36:50.376Z,89560.00
2023-02-06T02:37:50.396Z,89560.00
2023-02-06T02:38:50.422Z,89558.00
2023-02-06T02:39:50.446Z,89558.00
2023-02-06T02:40:50.612Z,89562.00
2023-02-06T02:41:50.502Z,89560.00
2023-02-06T02:42:50.670Z,89560.00
2023-02-06T02:43:50.639Z,89558.00
2023-02-06T02:44:51.186Z,89558.00
2023-02-06T02:45:50.735Z,89558.00
2023-02-06T02:46:50.549Z,89558.00
2023-02-06T02:47:50.492Z,89560.00
2023-02-06T02:48:50.456Z,89560.00
2023-02-06T02:49:50.444Z,89562.00
2023-02-06T02:50:50.538Z,89564.00
2023-02-06T02:51:50.516Z,89560.00
2023-02-06T02:52:50.726Z,89558.00
2023-02-06T02:53:50.708Z,89560.00
2023-02-06T02:54:50.715Z,89556.00
2023-02-06T02:55:50.742Z,89556.00
2023-02-06T02:57:50.691Z,89558.00
2023-02-06T02:58:51.188Z,89556.00
2023-02-06T02:59:51.183Z,89556.00
2023-02-06T03:00:50.737Z,89556.00
2023-02-06T03:01:50.753Z,89552.00
2023-02-06T03:02:50.572Z,89552.00
2023-02-06T03:03:50.533Z,89554.00
2023-02-06T03:04:50.558Z,89554.00
2023-02-06T03:05:50.532Z,89560.00
2023-02-06T03:06:50.555Z,89558.00
2023-02-06T03:07:50.572Z,89562.00
2023-02-06T03:08:50.633Z,89566.00
2023-02-06T03:09:50.862Z,89568.00
2023-02-06T03:10:50.838Z,89566.00
2023-02-06T03:11:50.906Z,89568.00
2023-02-06T03:13:50.934Z,89564.00
2023-02-06T03:15:50.773Z,89566.00
2023-02-06T03:16:50.684Z,89564.00
2023-02-06T03:17:50.785Z,89566.00
2023-02-06T03:18:50.646Z,89568.00
2023-02-06T03:19:50.588Z,89568.00
2023-02-06T03:20:50.557Z,89570.00
2023-02-06T03:21:50.599Z,89570.00
2023-02-06T03:22:50.624Z,89568.00
2023-02-06T03:23:50.719Z,89570.00
2023-02-06T03:24:50.756Z,89570.00
2023-02-06T03:25:50.782Z,89572.00
2023-02-06T03:26:50.845Z,89575.00
2023-02-06T04:44:51.010Z,89587.00
2023-02-06T04:55:51.269Z,89601.00
2023-02-06T04:56:51.223Z,89595.00
2023-02-06T04:57:51.272Z,89593.00
2023-02-06T04:59:52.230Z,89589.00
2023-02-06T05:00:51.751Z,89597.00
2023-02-06T05:01:51.281Z,89591.00
2023-02-06T05:02:51.416Z,89595.00
2023-02-06T05:04:51.405Z,89597.00
2023-02-06T05:05:51.198Z,89593.00
2023-02-06T05:06:51.157Z,89593.00
2023-02-06T05:07:51.236Z,89591.00
2023-02-06T05:08:51.229Z,89589.00
2023-02-06T05:09:52.230Z,89591.00
2023-02-06T05:11:51.318Z,89599.00
2023-02-06T05:12:51.363Z,89601.00
2023-02-06T05:14:51.137Z,89595.00
2023-02-06T05:15:51.294Z,89597.00
2023-02-06T05:16:51.157Z,89597.00
2023-02-06T05:17:51.143Z,89595.00
2023-02-06T05:18:51.747Z,89595.00
2023-02-06T05:19:51.164Z,89597.00
2023-02-06T05:20:51.185Z,89595.00
2023-02-06T05:21:51.151Z,89597.00
2023-02-06T05:22:51.071Z,89597.00
2023-02-06T05:23:51.070Z,89595.00
2023-02-06T05:24:51.158Z,89599.00
2023-02-06T05:25:51.197Z,89601.00
2023-02-06T05:26:51.175Z,89605.00
2023-02-06T05:27:51.361Z,89607.00
2023-02-06T05:28:51.348Z,89605.00
2023-02-06T05:29:51.286Z,89601.00
2023-02-06T05:30:51.794Z,89601.00
2023-02-06T05:31:51.365Z,89601.00
2023-02-06T05:32:52.255Z,89605.00
2023-02-06T05:33:52.773Z,89607.00
2023-02-06T05:34:51.382Z,89605.00
2023-02-06T05:35:51.323Z,89605.00
2023-02-06T05:36:51.390Z,89605.00
2023-02-06T05:37:51.316Z,89605.00
2023-02-06T05:38:51.343Z,89605.00
2023-02-06T05:39:51.328Z,89605.00
2023-02-06T05:40:51.342Z,89603.00
2023-02-06T05:41:51.294Z,89603.00
2023-02-06T05:42:51.393Z,89601.00
2023-02-06T05:43:52.230Z,89607.00
2023-02-06T05:44:51.454Z,89603.00
2023-02-06T05:45:51.323Z,89605.00
2023-02-06T05:46:51.367Z,89605.00
2023-02-06T05:47:51.240Z,89605.00
2023-02-06T05:48:51.227Z,89601.00
2023-02-06T05:49:51.219Z,89601.00
2023-02-06T05:50:51.316Z,89601.00
2023-02-06T05:51:51.555Z,89599.00
2023-02-06T05:52:52.263Z,89599.00
2023-02-06T05:53:51.429Z,89601.00
2023-02-06T05:54:51.276Z,89599.00
2023-02-06T05:55:51.385Z,89597.00
2023-02-06T05:56:51.236Z,89593.00
2023-02-06T05:57:51.211Z,89591.00
2023-02-06T05:58:51.253Z,89591.00
2023-02-06T05:59:51.289Z,89591.00
2023-02-06T06:00:51.571Z,89591.00
2023-02-06T06:01:51.430Z,89597.00
2023-02-06T06:02:51.410Z,89589.00
2023-02-06T06:03:51.552Z,89589.00
2023-02-06T06:04:51.556Z,89587.00
2023-02-06T06:05:51.546Z,89591.00
2023-02-06T06:06:51.567Z,89593.00
2023-02-06T06:07:51.546Z,89595.00
2023-02-06T06:08:51.575Z,89595.00
2023-02-06T06:09:51.613Z,89597.00
2023-02-06T06:10:51.652Z,89597.00
2023-02-06T06:11:51.728Z,89599.00
2023-02-06T06:12:51.756Z,89599.00
2023-02-06T06:13:51.758Z,89599.00
2023-02-06T06:14:51.812Z,89599.00
2023-02-06T06:15:51.960Z,89603.00
2023-02-06T06:16:51.865Z,89601.00
2023-02-06T06:17:51.906Z,89605.00
2023-02-06T06:18:51.918Z,89607.00
2023-02-06T06:19:51.994Z,89611.00
2023-02-06T06:20:52.000Z,89609.00
2023-02-06T06:21:52.049Z,89611.00
2023-02-06T06:22:52.093Z,89607.00
2023-02-06T06:23:52.116Z,89609.00
2023-02-06T06:24:52.155Z,89603.00
2023-02-06T06:25:52.236Z,89601.00
2023-02-06T06:26:52.218Z,89605.00
2023-02-06T06:27:52.298Z,89605.00
2023-02-06T06:28:52.302Z,89603.00
2023-02-06T06:29:52.335Z,89601.00
2023-02-06T06:30:52.415Z,89597.00
2023-02-06T06:31:52.470Z,89597.00
2023-02-06T09:52:50.736Z,89550.00
2023-02-06T09:58:50.867Z,89556.00
2023-02-06T09:59:50.922Z,89554.00
2023-02-06T10:10:50.681Z,89540.00
2023-02-06T10:19:50.463Z,89522.00
2023-02-06T10:26:50.243Z,89515.00
2023-02-06T10:27:50.286Z,89517.00
2023-02-06T10:28:50.242Z,89517.00
2023-02-06T10:34:49.988Z,89509.00
2023-02-06T10:35:49.954Z,89499.00
2023-02-06T10:36:49.932Z,89499.00
2023-02-06T10:38:49.845Z,89495.00
2023-02-06T10:39:49.779Z,89495.00
2023-02-06T10:40:49.844Z,89488.00
2023-02-06T10:42:49.857Z,89484.00
2023-02-06T10:43:49.726Z,89480.00
2023-02-06T10:44:51.524Z,89478.00
2023-02-06T10:45:49.545Z,89478.00
2023-02-06T10:46:49.602Z,89478.00
2023-02-06T10:47:49.576Z,89470.00
2023-02-06T10:48:49.457Z,89474.00
2023-02-06T10:49:49.408Z,89472.00
2023-02-06T10:50:49.366Z,89466.00
2023-02-06T10:51:49.356Z,89466.00
2023-02-06T10:52:49.323Z,89466.00
2023-02-06T10:53:49.260Z,89462.00
2023-02-06T10:54:49.229Z,89456.00
2023-02-06T10:55:49.512Z,89456.00
2023-02-06T10:56:49.188Z,89454.00
2023-02-06T10:57:49.204Z,89458.00
2023-02-06T10:58:49.119Z,89456.00
2023-02-06T10:59:49.089Z,89449.00
2023-02-06T11:00:49.097Z,89449.00
2023-02-06T11:01:49.072Z,89447.00
2023-02-06T11:02:52.798Z,89443.00
2023-02-06T11:04:49.090Z,89437.00
2023-02-06T11:05:48.884Z,89435.00
2023-02-06T11:06:48.840Z,89433.00
2023-02-06T11:07:48.936Z,89431.00
2023-02-06T11:08:48.778Z,89431.00
2023-02-06T11:09:48.741Z,89429.00
2023-02-06T11:10:48.706Z,89421.00
2023-02-06T11:11:49.906Z,89417.00
2023-02-06T11:12:48.657Z,89413.00
2023-02-06T11:13:48.778Z,89405.00
2023-02-06T11:14:48.769Z,89399.00
2023-02-06T11:15:48.651Z,89399.00
2023-02-06T11:16:48.866Z,89390.00
2023-02-06T11:17:48.656Z,89392.00
2023-02-06T11:18:48.490Z,89388.00
2023-02-06T11:19:48.493Z,89386.00
2023-02-06T11:20:48.462Z,89388.00
2023-02-06T11:21:48.481Z,89386.00
2023-02-06T11:22:53.148Z,89384.00
2023-02-06T11:23:49.344Z,89382.00
2023-02-06T11:24:48.288Z,89382.00
2023-02-06T11:25:48.434Z,89382.00
2023-02-06T11:26:48.270Z,89376.00
2023-02-06T11:27:48.274Z,89374.00
2023-02-06T11:28:48.207Z,89372.00
2023-02-06T11:29:49.908Z,89370.00
2023-02-06T11:30:48.155Z,89374.00
2023-02-06T11:31:48.120Z,89372.00
2023-02-06T11:33:02.661Z,89370.00
2023-02-06T11:33:49.004Z,89368.00
2023-02-06T11:34:48.111Z,89368.00
2023-02-06T11:35:48.023Z,89366.00
2023-02-06T11:36:48.015Z,89366.00
2023-02-06T11:37:47.930Z,89360.00
2023-02-06T11:38:47.870Z,89356.00
2023-02-06T11:40:47.838Z,89348.00
2023-02-06T11:42:47.895Z,89339.00
2023-02-06T11:45:48.381Z,89343.00
2023-02-06T12:05:47.924Z,89311.00
2023-02-06T13:07:50.060Z,89244.00
2023-02-06T13:22:44.443Z,89204.00
2023-02-06T13:45:44.545Z,89182.00
2023-02-06T14:00:43.910Z,89180.00
2023-02-06T14:10:43.513Z,89174.00
2023-02-06T14:24:43.657Z,89172.00
2023-02-06T14:56:42.827Z,89147.00
2023-02-06T14:57:42.744Z,89147.00
2023-02-06T14:58:42.714Z,89145.00
2023-02-06T14:59:42.721Z,89141.00
2023-02-06T15:00:42.689Z,89141.00
2023-02-06T15:01:42.631Z,89143.00
2023-02-06T15:02:42.580Z,89145.00
2023-02-06T15:03:42.529Z,89143.00
2023-02-06T15:04:42.499Z,89145.00
2023-02-06T15:05:42.443Z,89143.00
2023-02-06T15:06:42.395Z,89141.00
2023-02-06T15:07:42.370Z,89141.00
2023-02-06T15:08:42.326Z,89145.00
2023-02-06T15:09:42.269Z,89141.00
2023-02-06T15:10:42.480Z,89145.00
2023-02-06T15:11:42.186Z,89145.00
2023-02-06T15:12:42.158Z,89143.00
2023-02-06T15:13:42.136Z,89143.00
2023-02-06T15:14:42.095Z,89143.00
2023-02-06T15:15:42.450Z,89143.00
2023-02-06T15:16:41.975Z,89143.00
2023-02-06T15:17:41.950Z,89143.00
2023-02-06T15:18:41.915Z,89143.00
2023-02-06T15:19:41.873Z,89141.00
2023-02-06T15:20:41.844Z,89143.00
2023-02-06T15:21:41.771Z,89149.00
2023-02-06T15:22:41.736Z,89151.00
2023-02-06T15:23:42.461Z,89151.00
2023-02-06T15:24:42.112Z,89151.00
2023-02-06T15:25:43.665Z,89151.00
2023-02-06T15:26:41.603Z,89153.00
2023-02-06T15:27:41.616Z,89147.00
2023-02-06T15:28:41.527Z,89147.00
2023-02-06T15:29:41.478Z,89147.00
2023-02-06T15:30:41.435Z,89143.00
2023-02-06T15:31:41.460Z,89139.00
2023-02-06T15:32:41.394Z,89139.00
2023-02-06T15:33:41.313Z,89137.00
2023-02-06T15:34:41.299Z,89141.00
2023-02-06T15:35:41.264Z,89139.00
2023-02-06T15:36:42.003Z,89139.00
2023-02-06T15:37:41.117Z,89135.00
2023-02-06T15:38:41.097Z,89135.00
2023-02-06T15:39:41.063Z,89135.00
2023-02-06T15:40:41.034Z,89131.00
2023-02-06T15:41:40.988Z,89129.00
2023-02-06T15:42:40.927Z,89125.00
2023-02-06T15:43:40.899Z,89121.00
2023-02-06T15:44:40.892Z,89121.00
2023-02-06T15:45:40.822Z,89119.00
2023-02-06T15:46:40.784Z,89118.00
2023-02-06T15:47:40.720Z,89118.00
2023-02-06T15:48:43.276Z,89121.00
2023-02-06T15:49:40.628Z,89123.00
2023-02-06T15:50:40.585Z,89119.00
2023-02-06T15:51:40.568Z,89121.00
2023-02-06T15:52:40.502Z,89119.00
2023-02-06T15:53:40.508Z,89119.00
2023-02-06T15:54:40.429Z,89114.00
2023-02-06T15:55:40.420Z,89118.00
2023-02-06T15:56:40.364Z,89118.00
2023-02-06T15:57:40.348Z,89118.00
2023-02-06T15:58:40.297Z,89125.00
2023-02-06T15:59:40.237Z,89121.00
2023-02-06T16:00:40.288Z,89121.00
2023-02-06T16:01:40.157Z,89123.00
2023-02-06T16:02:40.089Z,89125.00
2023-02-06T16:03:40.052Z,89123.00
2023-02-06T16:04:40.000Z,89123.00
2023-02-06T16:05:40.000Z,89127.00
2023-02-06T16:06:39.907Z,89125.00
2023-02-06T16:07:39.883Z,89125.00
2023-02-06T16:08:39.815Z,89125.00
2023-02-06T16:09:39.785Z,89127.00
2023-02-06T16:10:39.845Z,89131.00
2023-02-06T16:11:39.699Z,89131.00
2023-02-06T16:12:39.659Z,89133.00
2023-02-06T16:13:39.609Z,89133.00
2023-02-06T16:14:39.575Z,89133.00
2023-02-06T16:15:39.530Z,89133.00
2023-02-06T16:16:39.540Z,89135.00
2023-02-06T16:17:39.458Z,89133.00
2023-02-06T16:18:39.411Z,89133.00
2023-02-06T16:19:39.365Z,89131.00
2023-02-06T16:20:39.878Z,89129.00
2023-02-06T16:21:39.270Z,89131.00
2023-02-06T16:22:39.224Z,89131.00
2023-02-06T16:23:39.163Z,89131.00
2023-02-06T16:24:39.131Z,89131.00
2023-02-06T16:25:39.111Z,89133.00
2023-02-06T16:26:39.074Z,89135.00
2023-02-06T16:27:39.023Z,89137.00
2023-02-06T16:28:38.958Z,89135.00
2023-02-06T16:29:38.958Z,89137.00
2023-02-06T16:30:39.283Z,89137.00
2023-02-06T16:31:39.013Z,89137.00
2023-02-06T16:32:38.851Z,89135.00
2023-02-06T16:33:38.792Z,89137.00
2023-02-06T16:34:38.752Z,89139.00
2023-02-06T16:35:39.476Z,89141.00
2023-02-06T16:36:38.681Z,89143.00
2023-02-06T16:37:38.629Z,89145.00
2023-02-06T16:38:38.602Z,89147.00
2023-02-06T16:39:38.573Z,89147.00
2023-02-06T16:40:39.470Z,89149.00
2023-02-06T16:41:38.505Z,89151.00
2023-02-06T16:42:38.472Z,89153.00
2023-02-06T16:43:38.429Z,89155.00
2023-02-06T16:44:44.768Z,89151.00
2023-02-06T16:45:39.326Z,89155.00
2023-02-06T16:46:38.298Z,89157.00
2023-02-06T16:47:38.284Z,89159.00
2023-02-06T16:48:38.234Z,89159.00
2023-02-06T16:49:38.167Z,89159.00
2023-02-06T16:50:38.344Z,89163.00
2023-02-06T16:51:38.072Z,89167.00
2023-02-06T16:52:38.044Z,89167.00
2023-02-06T16:53:38.011Z,89169.00
2023-02-06T16:54:37.939Z,89170.00
2023-02-06T16:55:37.904Z,89172.00
2023-02-06T16:56:37.868Z,89174.00
2023-02-06T16:57:37.812Z,89176.00
2023-02-06T16:58:37.761Z,89178.00
2023-02-06T16:59:37.831Z,89178.00
2023-02-06T17:00:37.969Z,89176.00
2023-02-06T17:01:37.641Z,89180.00
2023-02-06T17:02:37.621Z,89182.00
2023-02-06T17:03:37.641Z,89184.00
2023-02-06T17:04:37.534Z,89186.00
2023-02-06T17:05:38.008Z,89186.00
2023-02-06T17:06:37.390Z,89190.00
2023-02-06T17:07:37.346Z,89190.00
2023-02-06T17:08:37.304Z,89190.00
2023-02-06T17:09:37.248Z,89190.00
2023-02-06T17:10:37.501Z,89190.00
2023-02-06T17:11:37.213Z,89190.00
2023-02-06T17:12:37.141Z,89194.00
2023-02-06T17:13:37.090Z,89192.00
2023-02-06T17:14:37.038Z,89196.00
2023-02-06T17:15:37.020Z,89194.00
2023-02-06T17:16:36.970Z,89194.00
2023-02-06T17:17:36.934Z,89194.00
2023-02-06T17:18:36.885Z,89192.00
2023-02-06T17:19:36.844Z,89194.00
2023-02-06T17:20:37.153Z,89190.00
2023-02-06T17:21:36.726Z,89194.00
2023-02-06T17:22:36.699Z,89192.00
2023-02-06T17:23:37.021Z,89192.00
2023-02-06T17:24:36.612Z,89188.00
2023-02-06T17:25:36.823Z,89190.00
2023-02-06T17:26:36.525Z,89188.00
2023-02-06T17:27:36.468Z,89186.00
2023-02-06T17:28:36.458Z,89186.00
2023-02-06T17:29:36.401Z,89184.00
2023-02-06T17:30:36.677Z,89188.00
2023-02-06T17:31:36.341Z,89184.00
2023-02-06T17:32:36.989Z,89184.00
2023-02-06T17:33:36.274Z,89184.00
2023-02-06T17:34:36.229Z,89182.00
2023-02-06T17:35:36.175Z,89182.00
2023-02-06T17:36:36.137Z,89182.00
2023-02-06T17:37:36.125Z,89182.00
2023-02-06T17:38:36.125Z,89182.00
2023-02-06T17:39:36.041Z,89182.00
2023-02-06T17:40:36.468Z,89180.00
2023-02-06T17:41:36.489Z,89180.00
2023-02-06T17:42:35.906Z,89180.00
2023-02-06T17:43:35.877Z,89180.00
2023-02-06T17:44:35.825Z,89180.00
2023-02-06T17:45:36.095Z,89180.00
2023-02-06T17:46:35.821Z,89180.00
2023-02-06T17:47:35.733Z,89188.00
2023-02-06T17:48:36.661Z,89190.00
2023-02-06T17:49:35.613Z,89190.00
2023-02-06T17:50:35.889Z,89194.00
2023-02-06T17:51:35.533Z,89198.00
2023-02-06T17:52:35.478Z,89198.00
2023-02-06T17:53:35.437Z,89202.00
2023-02-06T17:54:35.397Z,89204.00
2023-02-06T17:55:35.374Z,89206.00
2023-02-06T17:56:35.317Z,89210.00
2023-02-06T17:57:35.284Z,89210.00
2023-02-06T17:58:35.281Z,89210.00
2023-02-06T17:59:35.200Z,89212.00
2023-02-06T18:00:35.476Z,89214.00
2023-02-06T18:01:35.145Z,89216.00
2023-02-06T18:02:35.146Z,89218.00
2023-02-06T18:03:35.502Z,89220.00
2023-02-06T18:04:35.040Z,89220.00
2023-02-06T18:05:35.189Z,89224.00
2023-02-06T18:06:34.942Z,89222.00
2023-02-06T18:07:34.900Z,89222.00
2023-02-06T18:08:35.023Z,89229.00
2023-02-06T18:09:34.837Z,89224.00
2023-02-06T18:10:35.205Z,89227.00
2023-02-06T18:11:34.762Z,89229.00
2023-02-06T18:12:34.735Z,89231.00
2023-02-06T18:13:34.688Z,89229.00
2023-02-06T18:14:34.648Z,89231.00
2023-02-06T18:15:34.582Z,89238.00
2023-02-06T18:16:34.562Z,89240.00
2023-02-06T18:17:34.512Z,89240.00
2023-02-06T18:18:34.484Z,89240.00
2023-02-06T18:19:34.531Z,89242.00
2023-02-06T18:20:34.466Z,89244.00
2023-02-06T18:21:35.040Z,89244.00
2023-02-06T18:22:34.334Z,89246.00
2023-02-06T18:23:34.294Z,89244.00
2023-02-06T18:24:34.234Z,89244.00
2023-02-06T18:25:34.375Z,89244.00
2023-02-06T18:26:34.160Z,89244.00
2023-02-06T18:27:34.130Z,89244.00
2023-02-06T18:28:35.055Z,89240.00
2023-02-06T18:29:47.515Z,89242.00
2023-02-06T18:30:35.307Z,89242.00
2023-02-06T18:31:34.033Z,89244.00
2023-02-06T18:32:33.938Z,89244.00
2023-02-06T18:33:33.904Z,89244.00
2023-02-06T18:34:33.851Z,89246.00
2023-02-06T18:35:33.793Z,89250.00
2023-02-06T18:36:33.754Z,89246.00
2023-02-06T18:37:33.715Z,89246.00
2023-02-06T18:38:33.682Z,89248.00
2023-02-06T18:39:33.643Z,89250.00
2023-02-06T18:40:33.588Z,89248.00
2023-02-06T18:41:33.557Z,89246.00
2023-02-06T18:42:33.508Z,89242.00
2023-02-06T18:43:33.503Z,89244.00
2023-02-06T18:44:33.434Z,89242.00
2023-02-06T18:45:33.418Z,89242.00
2023-02-06T18:46:33.397Z,89240.00
2023-02-06T18:47:33.319Z,89238.00
2023-02-06T18:48:33.320Z,89231.00
2023-02-06T18:49:33.224Z,89231.00
2023-02-06T18:50:33.186Z,89229.00
2023-02-06T18:51:33.154Z,89227.00
2023-02-06T18:52:33.107Z,89224.00
2023-02-06T18:53:33.132Z,89222.00
2023-02-06T18:54:33.023Z,89224.00
2023-02-06T18:55:33.031Z,89224.00
2023-02-06T18:56:32.937Z,89224.00
2023-02-06T18:57:32.891Z,89225.00
2023-02-06T18:58:32.821Z,89224.00
2023-02-06T18:59:32.825Z,89222.00
2023-02-06T19:00:32.768Z,89222.00
2023-02-06T19:01:32.742Z,89222.00
2023-02-06T19:02:32.694Z,89222.00
2023-02-06T19:03:32.650Z,89222.00
2023-02-06T19:04:32.611Z,89224.00
2023-02-06T19:05:32.567Z,89224.00
2023-02-06T19:06:32.544Z,89225.00
2023-02-06T19:07:32.498Z,89225.00
2023-02-06T19:08:32.464Z,89227.00
2023-02-06T19:09:32.441Z,89229.00
2023-02-06T19:10:32.370Z,89231.00
2023-02-06T19:11:32.351Z,89238.00
2023-02-06T19:12:32.299Z,89238.00
2023-02-06T19:13:32.269Z,89240.00
2023-02-06T19:14:32.249Z,89238.00
2023-02-06T19:15:32.181Z,89240.00
2023-02-06T19:16:32.160Z,89240.00
2023-02-06T19:17:32.090Z,89240.00
2023-02-06T19:18:38.947Z,89240.00
2023-02-06T19:19:33.000Z,89244.00
2023-02-06T19:20:31.946Z,89242.00
2023-02-06T19:21:31.910Z,89246.00
2023-02-06T19:22:32.540Z,89246.00
2023-02-06T19:23:31.810Z,89248.00
2023-02-06T19:24:31.812Z,89250.00
2023-02-06T19:25:31.732Z,89250.00
2023-02-06T19:26:31.681Z,89252.00
2023-02-06T19:27:31.623Z,89254.00
2023-02-06T19:28:32.557Z,89256.00
2023-02-06T19:29:36.195Z,89256.00
2023-02-06T19:30:32.577Z,89260.00
2023-02-06T19:31:31.474Z,89260.00
2023-02-06T19:32:31.422Z,89260.00
2023-02-06T19:33:31.375Z,89260.00
2023-02-06T19:34:33.472Z,89258.00
2023-02-06T19:35:31.299Z,89260.00
2023-02-06T19:36:31.283Z,89260.00
2023-02-06T19:37:31.199Z,89260.00
2023-02-06T19:38:31.145Z,89262.00
2023-02-06T19:39:31.112Z,89264.00
2023-02-06T19:40:31.094Z,89264.00
2023-02-06T19:41:31.047Z,89266.00
2023-02-06T19:42:31.026Z,89266.00
2023-02-06T19:43:30.985Z,89268.00
2023-02-06T19:44:30.914Z,89270.00
2023-02-06T19:45:30.886Z,89274.00
2023-02-06T19:46:30.818Z,89274.00
2023-02-06T19:47:30.789Z,89272.00
2023-02-06T19:48:30.770Z,89272.00
2023-02-06T19:49:30.769Z,89274.00
2023-02-06T19:50:30.666Z,89278.00
2023-02-06T19:51:30.665Z,89278.00
2023-02-06T19:52:30.590Z,89278.00
2023-02-06T19:53:30.535Z,89280.00
2023-02-06T19:54:30.547Z,89282.00
2023-02-06T19:55:30.488Z,89286.00
2023-02-06T19:56:30.410Z,89288.00
2023-02-06T19:57:30.392Z,89288.00
2023-02-06T19:58:30.341Z,89290.00
2023-02-06T19:59:30.320Z,89293.00
2023-02-06T20:00:30.248Z,89290.00
2023-02-06T20:01:30.193Z,89290.00
2023-02-06T20:02:30.155Z,89292.00
2023-02-06T20:03:30.324Z,89292.00
2023-02-06T20:04:30.098Z,89292.00
2023-02-06T20:05:30.559Z,89290.00
2023-02-06T20:06:30.552Z,89292.00
2023-02-06T20:07:30.580Z,89292.00
2023-02-06T20:08:30.462Z,89292.00
2023-02-06T20:09:29.873Z,89292.00
2023-02-06T20:10:30.451Z,89293.00
2023-02-06T20:11:30.476Z,89295.00
2023-02-06T20:12:30.383Z,89295.00
2023-02-06T20:13:30.240Z,89295.00
2023-02-06T20:14:29.659Z,89295.00
2023-02-06T20:15:29.636Z,89297.00
2023-02-06T20:16:29.681Z,89297.00
2023-02-06T20:17:29.565Z,89299.00
2023-02-06T20:18:29.504Z,89303.00
2023-02-06T20:19:29.453Z,89305.00
2023-02-06T20:20:29.428Z,89309.00
2023-02-06T20:21:30.065Z,89311.00
2023-02-06T20:22:29.337Z,89311.00
2023-02-06T20:23:29.308Z,89313.00
2023-02-06T20:24:29.264Z,89311.00
2023-02-06T20:25:29.267Z,89311.00